Time;durP1;ratioP1;P1;durP2;ratioP2;P2;SDS_P1;SDS_P2;PMS_P1;PMS_P2;Temp;Humidity;BMP_temperature;BMP_pressure;BME280_temperature;BME280_humidity;BME280_pressure;Samples;Min_cycle;Max_cycle;Signal;HPM_P1;HPM_P2
2020/12/08 00:02:13;;;;;;;19.20;15.07;;;4.90;99.70;;;;;;5077868;28;20609;-70
2020/12/08 00:04:42;;;;;;;21.90;14.43;;;5.10;99.90;;;;;;5073368;28;20466;-71
2020/12/08 00:07:09;;;;;;;15.18;12.82;;;5.00;99.90;;;;;;5068554;28;20185;-71
2020/12/08 00:09:36;;;;;;;17.48;12.95;;;5.00;99.90;;;;;;5072441;28;20393;-71
2020/12/08 00:12:03;;;;;;;16.77;13.38;;;5.00;99.70;;;;;;5073397;28;20295;-71
2020/12/08 00:14:28;;;;;;;17.05;13.57;;;5.00;99.80;;;;;;5072546;28;20524;-71
2020/12/08 00:16:54;;;;;;;14.97;12.70;;;4.90;99.60;;;;;;5055078;28;20189;-70
2020/12/08 00:19:21;;;;;;;18.13;13.27;;;4.60;99.90;;;;;;5090143;28;20168;-71
2020/12/08 00:21:47;;;;;;;16.42;14.05;;;4.70;99.90;;;;;;5092617;28;20227;-70
2020/12/08 00:24:14;;;;;;;16.90;14.77;;;4.70;99.90;;;;;;5093153;28;20183;-70
2020/12/08 00:26:40;;;;;;;19.25;12.93;;;4.70;99.90;;;;;;5093380;28;20407;-70
2020/12/08 00:29:07;;;;;;;15.10;12.75;;;4.80;99.90;;;;;;5093289;28;20173;-70
2020/12/08 00:31:33;;;;;;;16.27;13.43;;;4.90;99.90;;;;;;5082696;28;20433;-70
2020/12/08 00:33:59;;;;;;;18.60;12.40;;;4.90;99.90;;;;;;5073491;28;20195;-70
2020/12/08 00:36:26;;;;;;;16.13;12.83;;;4.90;99.60;;;;;;5090573;28;20380;-70
2020/12/08 00:38:52;;;;;;;16.45;13.05;;;5.00;99.50;;;;;;5093195;28;20821;-70
2020/12/08 00:41:19;;;;;;;13.88;11.90;;;5.00;99.30;;;;;;5092513;28;20193;-71
2020/12/08 00:43:46;;;;;;;12.55;10.65;;;5.10;99.20;;;;;;5093020;28;20222;-70
2020/12/08 00:46:13;;;;;;;15.60;11.70;;;5.20;99.00;;;;;;5093131;28;20177;-71
2020/12/08 00:48:40;;;;;;;13.80;11.43;;;5.20;98.90;;;;;;5091704;28;20177;-71
2020/12/08 00:51:06;;;;;;;14.00;11.60;;;5.20;98.30;;;;;;5091928;28;20209;-71
2020/12/08 00:53:32;;;;;;;13.13;11.23;;;5.30;97.80;;;;;;5091310;28;20259;-71
2020/12/08 00:55:59;;;;;;;15.27;12.35;;;5.30;97.40;;;;;;5091663;28;20176;-70
2020/12/08 00:58:26;;;;;;;13.10;11.05;;;5.30;97.20;;;;;;5089722;28;20169;-71
2020/12/08 01:00:52;;;;;;;15.73;12.95;;;5.30;97.00;;;;;;5090511;28;20204;-71
2020/12/08 01:03:18;;;;;;;18.52;12.70;;;5.30;97.00;;;;;;5090500;28;20251;-71
2020/12/08 01:05:44;;;;;;;18.00;13.43;;;5.30;97.30;;;;;;5091147;28;20263;-71
2020/12/08 01:08:10;;;;;;;17.77;12.20;;;5.30;97.30;;;;;;5091164;28;20180;-71
2020/12/08 01:10:36;;;;;;;14.03;12.60;;;5.30;97.20;;;;;;5090446;28;20511;-70
2020/12/08 01:13:02;;;;;;;18.20;13.40;;;5.10;97.40;;;;;;5091208;28;20421;-70
2020/12/08 01:15:28;;;;;;;18.25;14.07;;;4.90;97.80;;;;;;5090745;28;20172;-70
2020/12/08 01:17:54;;;;;;;20.73;14.20;;;4.90;98.10;;;;;;5093177;28;20293;-70
2020/12/08 01:20:20;;;;;;;15.50;13.00;;;4.90;98.20;;;;;;5091610;28;20472;-71
2020/12/08 01:22:45;;;;;;;19.10;14.13;;;4.80;98.30;;;;;;5092504;28;20264;-70
2020/12/08 01:25:12;;;;;;;19.13;13.07;;;4.80;98.40;;;;;;5092382;28;20172;-70
2020/12/08 01:27:37;;;;;;;15.00;12.35;;;4.80;98.50;;;;;;5073620;28;20219;-70
2020/12/08 01:30:04;;;;;;;15.40;11.70;;;4.80;98.50;;;;;;5091786;28;20228;-70
2020/12/08 01:32:30;;;;;;;15.43;13.02;;;4.90;98.40;;;;;;5073480;28;20200;-70
2020/12/08 01:34:56;;;;;;;16.20;13.13;;;4.80;98.20;;;;;;5078235;28;20262;-70
2020/12/08 01:37:22;;;;;;;17.10;13.03;;;4.80;98.30;;;;;;5090482;28;20184;-70
2020/12/08 01:39:47;;;;;;;16.97;12.50;;;4.90;98.30;;;;;;5091255;28;20169;-70
2020/12/08 01:42:13;;;;;;;19.00;12.63;;;4.90;98.30;;;;;;5091374;28;20202;-70
2020/12/08 01:44:45;;;;;;;16.17;12.47;;;4.90;98.00;;;;;;5090809;28;20287;-70
2020/12/08 01:47:11;;;;;;;14.57;12.27;;;4.80;98.40;;;;;;5088301;28;20173;-70
2020/12/08 01:49:37;;;;;;;14.93;12.30;;;4.80;98.50;;;;;;5090551;28;20172;-70
2020/12/08 01:52:03;;;;;;;17.60;13.07;;;4.90;98.40;;;;;;5091119;28;20198;-70
2020/12/08 01:54:29;;;;;;;14.93;12.45;;;4.90;98.40;;;;;;5090661;28;20186;-70
2020/12/08 01:56:55;;;;;;;14.50;11.83;;;4.90;98.20;;;;;;5091192;28;20176;-70
2020/12/08 01:59:20;;;;;;;15.93;12.53;;;4.90;98.10;;;;;;5090569;28;20890;-70
2020/12/08 02:01:48;;;;;;;13.50;11.47;;;4.90;98.20;;;;;;5090992;28;20658;-70
2020/12/08 02:04:13;;;;;;;13.38;11.13;;;5.00;98.20;;;;;;5091116;28;20175;-70
2020/12/08 02:06:40;;;;;;;17.30;12.47;;;5.00;97.80;;;;;;5090865;28;20183;-70
2020/12/08 02:09:06;;;;;;;18.48;14.70;;;5.00;97.80;;;;;;5091798;28;20214;-70
2020/12/08 02:11:31;;;;;;;20.63;14.50;;;5.00;97.80;;;;;;5095111;28;20200;-70
2020/12/08 02:13:57;;;;;;;18.80;14.83;;;5.00;97.80;;;;;;5096059;28;20463;-70
2020/12/08 02:16:23;;;;;;;17.60;13.40;;;4.80;98.00;;;;;;5095251;28;20172;-70
2020/12/08 02:18:49;;;;;;;19.20;14.23;;;4.80;98.30;;;;;;5095921;28;20168;-70
2020/12/08 02:21:16;;;;;;;17.50;12.90;;;4.80;98.30;;;;;;5095865;28;20246;-70
2020/12/08 02:24:00;;;;;;;14.45;11.73;;;4.80;98.40;;;;;;5096030;28;20180;-70
2020/12/08 02:26:26;;;;;;;18.23;12.05;;;4.80;98.60;;;;;;5086578;28;20259;-70
2020/12/08 02:28:53;;;;;;;19.10;11.90;;;4.70;98.60;;;;;;5095485;28;20213;-70
2020/12/08 02:31:19;;;;;;;14.50;10.18;;;4.70;99.00;;;;;;5094711;28;20203;-70
2020/12/08 02:33:45;;;;;;;14.65;11.60;;;4.80;99.10;;;;;;5095541;28;20283;-70
2020/12/08 02:36:11;;;;;;;18.23;11.87;;;4.90;99.00;;;;;;5095582;28;20628;-70
2020/12/08 02:38:37;;;;;;;15.23;10.67;;;4.90;98.70;;;;;;5094913;28;20260;-70
2020/12/08 02:41:04;;;;;;;13.98;11.55;;;5.00;98.40;;;;;;5094780;28;20406;-70
2020/12/08 02:43:31;;;;;;;16.00;11.50;;;5.10;98.30;;;;;;5093870;28;20177;-70
2020/12/08 02:45:59;;;;;;;14.98;11.63;;;5.10;98.00;;;;;;5096160;28;20184;-70
2020/12/08 02:48:25;;;;;;;18.38;12.82;;;5.10;98.00;;;;;;5095433;28;20182;-70
2020/12/08 02:50:51;;;;;;;15.37;11.70;;;4.90;98.00;;;;;;5095625;28;20204;-70
2020/12/08 02:53:17;;;;;;;14.88;11.45;;;4.70;98.40;;;;;;5095372;28;20210;-71
2020/12/08 02:55:47;;;;;;;19.00;12.20;;;4.60;98.80;;;;;;5093599;28;20252;-70
2020/12/08 02:58:14;;;;;;;16.88;12.18;;;4.50;99.30;;;;;;5094423;28;20184;-70
2020/12/08 03:00:40;;;;;;;16.13;12.15;;;4.60;99.40;;;;;;5095461;28;20188;-70
2020/12/08 03:03:06;;;;;;;14.80;11.10;;;4.50;99.30;;;;;;5095879;28;20524;-70
2020/12/08 03:05:31;;;;;;;17.37;11.93;;;4.60;99.40;;;;;;5094779;28;20180;-70
2020/12/08 03:07:57;;;;;;;14.23;11.70;;;4.70;99.30;;;;;;5095470;28;20478;-70
2020/12/08 03:10:23;;;;;;;16.80;12.33;;;4.70;99.00;;;;;;5094629;28;20204;-70
2020/12/08 03:12:49;;;;;;;15.00;11.50;;;4.80;98.70;;;;;;5080758;28;20181;-70
2020/12/08 03:15:14;;;;;;;13.60;11.67;;;4.80;98.30;;;;;;5074985;28;20174;-70
2020/12/08 03:17:40;;;;;;;19.10;14.30;;;4.90;97.70;;;;;;5074327;28;20647;-70
2020/12/08 03:20:07;;;;;;;23.60;15.43;;;4.90;97.50;;;;;;5074822;28;20523;-70
2020/12/08 03:22:34;;;;;;;22.30;15.52;;;4.90;97.90;;;;;;5073343;28;20169;-70
2020/12/08 03:25:01;;;;;;;17.65;14.30;;;4.90;98.10;;;;;;5075082;28;20570;-70
2020/12/08 03:27:27;;;;;;;19.83;14.00;;;4.90;98.10;;;;;;5074232;28;20266;-70
2020/12/08 03:29:53;;;;;;;20.50;13.60;;;4.90;97.90;;;;;;5074900;28;20255;-70
2020/12/08 03:32:18;;;;;;;18.43;14.13;;;4.90;98.10;;;;;;5074707;28;20617;-70
2020/12/08 03:34:44;;;;;;;19.23;13.50;;;4.90;98.30;;;;;;5074560;28;20263;-70
2020/12/08 03:37:10;;;;;;;15.50;12.37;;;5.00;98.30;;;;;;5074686;28;20286;-70
2020/12/08 03:39:36;;;;;;;14.77;12.37;;;5.10;97.90;;;;;;5056105;28;20201;-70
2020/12/08 03:42:03;;;;;;;17.50;13.83;;;5.10;97.40;;;;;;5074294;28;20411;-70
2020/12/08 03:44:29;;;;;;;16.98;14.05;;;5.20;97.40;;;;;;5073879;28;20244;-70
2020/12/08 03:47:03;;;;;;;15.00;12.23;;;5.10;97.30;;;;;;5074788;28;20201;-70
2020/12/08 03:49:29;;;;;;;13.00;11.63;;;5.20;97.30;;;;;;5073845;28;20374;-70
2020/12/08 03:51:58;;;;;;;15.00;11.37;;;5.20;97.20;;;;;;5074293;28;20671;-70
2020/12/08 03:54:24;;;;;;;15.05;12.38;;;5.20;97.30;;;;;;5073787;28;20181;-71
2020/12/08 03:56:50;;;;;;;16.88;12.77;;;5.20;97.10;;;;;;5074176;28;20536;-70
2020/12/08 03:59:19;;;;;;;16.65;12.30;;;5.30;97.20;;;;;;5074044;28;20204;-70
2020/12/08 04:01:48;;;;;;;14.55;12.60;;;5.30;97.10;;;;;;5072936;28;20177;-70
2020/12/08 04:04:18;;;;;;;14.77;12.40;;;5.30;97.20;;;;;;5073795;28;20177;-70
2020/12/08 04:06:44;;;;;;;14.77;12.32;;;5.30;97.20;;;;;;5073075;28;20180;-68
2020/12/08 04:09:10;;;;;;;15.60;12.07;;;5.30;97.30;;;;;;5073294;28;20177;-67
2020/12/08 04:11:36;;;;;;;18.43;12.10;;;5.20;97.40;;;;;;5072828;28;20292;-67
2020/12/08 04:14:03;;;;;;;15.73;12.80;;;5.10;97.50;;;;;;5073485;28;20181;-67
2020/12/08 04:16:30;;;;;;;14.80;11.90;;;5.10;97.90;;;;;;5072253;28;20177;-68
2020/12/08 04:18:56;;;;;;;12.90;11.30;;;4.80;98.00;;;;;;5073299;28;20250;-67
2020/12/08 04:21:23;;;;;;;17.13;11.73;;;4.90;98.60;;;;;;5072851;28;20181;-67
2020/12/08 04:23:49;;;;;;;15.23;12.55;;;4.80;98.90;;;;;;5072508;28;20255;-67
2020/12/08 04:26:15;;;;;;;15.57;12.00;;;4.80;98.80;;;;;;5073207;28;20181;-67
2020/12/08 04:28:43;;;;;;;15.70;12.20;;;4.80;98.90;;;;;;5072423;28;20186;-67
2020/12/08 04:31:16;;;;;;;14.85;12.95;;;4.90;98.80;;;;;;5073197;28;20224;-67
2020/12/08 04:33:42;;;;;;;13.38;11.05;;;5.00;98.70;;;;;;5072426;28;20173;-67
2020/12/08 04:36:12;;;;;;;13.32;11.25;;;4.90;98.70;;;;;;5073059;28;20198;-69
2020/12/08 04:38:39;;;;;;;13.38;11.98;;;5.00;98.80;;;;;;5072242;28;20303;-67
2020/12/08 04:41:05;;;;;;;14.52;12.55;;;5.00;98.80;;;;;;5073503;28;20208;-67
2020/12/08 04:43:30;;;;;;;14.23;12.50;;;5.10;98.70;;;;;;5072608;28;20223;-67
2020/12/08 04:45:57;;;;;;;13.48;12.07;;;5.10;98.60;;;;;;5073446;28;20518;-67
2020/12/08 04:48:23;;;;;;;14.20;12.70;;;5.10;98.40;;;;;;5072956;28;20227;-67
2020/12/08 04:50:50;;;;;;;14.73;11.27;;;5.10;98.50;;;;;;5072524;28;20568;-67
2020/12/08 04:53:16;;;;;;;14.95;11.57;;;5.20;98.70;;;;;;5073062;28;20191;-67
2020/12/08 04:55:42;;;;;;;15.93;13.00;;;5.20;98.70;;;;;;5072856;28;20178;-67
2020/12/08 04:58:09;;;;;;;13.23;11.77;;;5.30;98.70;;;;;;5073080;28;20247;-67
2020/12/08 05:00:41;;;;;;;17.98;13.45;;;5.30;98.60;;;;;;5054664;28;20177;-67
2020/12/08 05:03:07;;;;;;;15.63;13.38;;;5.40;98.60;;;;;;5073167;28;20177;-67
2020/12/08 05:05:43;;;;;;;16.33;12.63;;;5.40;98.40;;;;;;5072515;28;20503;-67
2020/12/08 05:08:13;;;;;;;18.55;13.07;;;5.40;98.20;;;;;;5072974;28;20173;-67
2020/12/08 05:10:39;;;;;;;18.98;13.65;;;5.40;98.20;;;;;;5072862;28;20605;-67
2020/12/08 05:13:26;;;;;;;22.15;14.40;;;5.40;98.20;;;;;;5072451;28;20169;-67
2020/12/08 05:15:59;;;;;;;17.35;13.43;;;5.40;98.10;;;;;;5072922;28;20164;-67
2020/12/08 05:18:25;;;;;;;17.25;14.38;;;5.40;98.10;;;;;;5072877;28;20174;-67
2020/12/08 05:20:51;;;;;;;22.47;15.90;;;5.50;98.20;;;;;;5071845;28;20191;-67
2020/12/08 05:23:16;;;;;;;18.43;16.20;;;5.40;98.00;;;;;;5072791;28;20570;-67
2020/12/08 05:25:45;;;;;;;17.20;13.60;;;5.40;98.10;;;;;;5054165;28;20404;-67
2020/12/08 05:28:18;;;;;;;17.38;14.43;;;5.40;98.20;;;;;;5072648;28;20260;-67
2020/12/08 05:30:45;;;;;;;18.77;14.68;;;5.40;98.20;;;;;;5071554;28;20319;-67
2020/12/08 05:33:16;;;;;;;18.20;14.40;;;5.50;98.30;;;;;;5072602;28;20259;-67
2020/12/08 05:35:45;;;;;;;16.70;14.10;;;5.40;98.50;;;;;;5072095;28;20173;-67
2020/12/08 05:38:15;;;;;;;18.70;13.25;;;5.40;98.70;;;;;;5072527;28;20516;-67
2020/12/08 05:40:43;;;;;;;16.73;13.43;;;5.40;98.70;;;;;;5071917;28;20261;-67
2020/12/08 05:43:09;;;;;;;18.27;13.18;;;5.40;98.50;;;;;;5072321;28;20185;-67
2020/12/08 05:45:37;;;;;;;17.50;13.20;;;5.40;98.60;;;;;;5071064;28;20173;-67
2020/12/08 05:48:03;;;;;;;19.75;14.70;;;5.40;98.70;;;;;;5072448;28;20414;-67
2020/12/08 05:50:28;;;;;;;18.08;13.10;;;5.40;98.80;;;;;;5071778;28;20205;-69
2020/12/08 05:52:56;;;;;;;17.33;12.60;;;5.40;98.70;;;;;;5072253;28;20185;-67
2020/12/08 05:55:28;;;;;;;17.10;13.57;;;5.40;98.60;;;;;;5072478;28;20537;-67
2020/12/08 05:58:10;;;;;;;14.93;12.30;;;5.40;98.60;;;;;;5072619;28;20185;-67
2020/12/08 06:00:40;;;;;;;17.42;13.55;;;5.40;98.60;;;;;;5071777;28;20240;-67
2020/12/08 06:03:10;;;;;;;18.88;14.95;;;5.40;98.50;;;;;;5072326;28;20630;-67
2020/12/08 06:05:37;;;;;;;14.52;11.85;;;5.50;98.70;;;;;;5071636;28;20174;-67
2020/12/08 06:08:40;;;;;;;17.90;13.43;;;5.50;98.60;;;;;;5072341;28;20231;-67
2020/12/08 06:11:06;;;;;;;16.48;13.40;;;5.50;98.80;;;;;;5056777;28;20315;-67
2020/12/08 06:13:33;;;;;;;15.83;12.90;;;5.50;98.90;;;;;;5071407;28;20610;-67
2020/12/08 06:16:00;;;;;;;15.90;12.80;;;5.60;98.90;;;;;;5072166;28;20588;-67
2020/12/08 06:18:33;;;;;;;16.75;12.93;;;5.60;99.00;;;;;;5072134;28;20166;-67
2020/12/08 06:21:02;;;;;;;18.63;13.95;;;5.60;99.00;;;;;;5072165;28;20223;-67
2020/12/08 06:23:28;;;;;;;19.45;14.20;;;5.60;99.00;;;;;;5054216;28;20195;-67
2020/12/08 06:26:03;;;;;;;16.30;12.97;;;5.60;99.40;;;;;;5071353;28;20222;-67
2020/12/08 06:28:30;;;;;;;15.13;11.50;;;5.60;98.70;;;;;;5072117;28;20257;-67
2020/12/08 06:31:06;;;;;;;15.05;12.55;;;5.60;98.60;;;;;;5072303;28;20379;-67
2020/12/08 06:33:51;;;;;;;14.15;11.52;;;5.60;98.60;;;;;;5071489;28;20169;-67
2020/12/08 06:36:19;;;;;;;15.40;12.30;;;5.70;98.60;;;;;;5071921;28;20201;-67
2020/12/08 06:38:55;;;;;;;13.55;10.82;;;5.70;98.50;;;;;;5070204;28;20537;-67
2020/12/08 06:41:33;;;;;;;16.33;13.60;;;5.70;98.50;;;;;;5071774;28;20177;-67
2020/12/08 06:44:01;;;;;;;15.20;13.15;;;5.70;98.60;;;;;;5053892;28;20237;-67
2020/12/08 06:46:27;;;;;;;16.83;13.27;;;5.70;98.60;;;;;;5071826;28;20173;-67
2020/12/08 06:49:00;;;;;;;16.55;12.05;;;5.70;98.60;;;;;;5070937;28;20177;-67
2020/12/08 06:51:26;;;;;;;16.67;12.23;;;5.80;98.60;;;;;;5071665;28;20236;-67
2020/12/08 06:53:52;;;;;;;13.73;11.90;;;5.80;98.60;;;;;;5071184;28;20211;-67
2020/12/08 06:56:30;;;;;;;18.00;12.90;;;5.80;98.50;;;;;;5072614;28;20411;-67
2020/12/08 06:58:57;;;;;;;14.30;12.02;;;5.80;98.60;;;;;;5074686;28;20196;-67
2020/12/08 07:01:23;;;;;;;16.10;13.73;;;5.80;98.70;;;;;;5075300;28;20756;-67
2020/12/08 07:03:49;;;;;;;16.70;14.57;;;5.70;98.60;;;;;;5074696;28;20308;-67
2020/12/08 07:06:15;;;;;;;16.70;13.38;;;5.80;98.70;;;;;;5057466;28;20169;-67
2020/12/08 07:08:54;;;;;;;15.80;14.20;;;5.80;98.70;;;;;;5074609;28;20191;-67
2020/12/08 07:11:21;;;;;;;23.83;14.95;;;5.80;98.70;;;;;;5057134;28;20467;-67
2020/12/08 07:13:58;;;;;;;15.15;13.60;;;5.80;98.70;;;;;;5074308;28;20535;-67
2020/12/08 07:16:26;;;;;;;16.20;13.48;;;5.80;98.70;;;;;;5074784;28;20248;-67
2020/12/08 07:18:54;;;;;;;17.58;15.48;;;5.80;98.70;;;;;;5074369;28;20234;-67
2020/12/08 07:21:20;;;;;;;15.18;12.60;;;5.80;98.70;;;;;;5074826;28;20255;-67
2020/12/08 07:23:47;;;;;;;16.73;13.68;;;5.90;98.80;;;;;;5074384;28;20178;-67
2020/12/08 07:26:20;;;;;;;17.58;14.80;;;5.90;99.00;;;;;;5074879;28;20169;-67
2020/12/08 07:28:45;;;;;;;17.33;12.98;;;5.90;99.20;;;;;;5074246;28;20208;-67
2020/12/08 07:31:23;;;;;;;16.60;13.20;;;5.90;99.10;;;;;;5074748;28;20627;-67
2020/12/08 07:33:49;;;;;;;16.33;13.82;;;5.90;99.00;;;;;;5074145;28;20593;-67
2020/12/08 07:36:29;;;;;;;18.13;16.23;;;5.90;98.90;;;;;;5074843;28;20224;-67
2020/12/08 07:38:57;;;;;;;20.33;14.00;;;5.90;98.80;;;;;;5073993;28;20245;-67
2020/12/08 07:41:28;;;;;;;17.15;15.35;;;5.90;98.80;;;;;;5074471;28;20231;-67
2020/12/08 07:43:55;;;;;;;15.00;12.57;;;6.00;98.90;;;;;;5073610;28;20178;-67
2020/12/08 07:46:25;;;;;;;18.05;16.17;;;5.90;98.90;;;;;;5074111;28;20559;-67
2020/12/08 07:48:59;;;;;;;17.80;13.80;;;5.90;98.90;;;;;;5073753;28;20694;-67
2020/12/08 07:51:27;;;;;;;17.67;15.85;;;6.00;99.00;;;;;;5074232;28;20204;-67
2020/12/08 07:53:53;;;;;;;19.85;14.35;;;5.90;99.00;;;;;;5074128;28;20200;-67
2020/12/08 07:56:29;;;;;;;18.23;14.87;;;6.00;99.00;;;;;;5074143;28;20633;-67
2020/12/08 07:58:55;;;;;;;16.77;14.38;;;6.00;99.00;;;;;;5073560;28;20177;-67
2020/12/08 08:01:21;;;;;;;17.00;15.30;;;6.00;98.90;;;;;;5074055;28;20223;-67
2020/12/08 08:03:47;;;;;;;18.25;15.70;;;6.00;98.90;;;;;;5073831;28;20527;-67
2020/12/08 08:06:18;;;;;;;18.63;15.53;;;6.10;99.00;;;;;;5074188;28;20177;-67
2020/12/08 08:08:47;;;;;;;15.23;13.63;;;6.10;98.90;;;;;;5073285;28;20188;-68
2020/12/08 08:11:13;;;;;;;18.80;14.90;;;6.10;99.20;;;;;;5073855;28;20433;-67
2020/12/08 08:13:39;;;;;;;17.38;15.57;;;6.10;98.80;;;;;;5073135;28;20180;-68
2020/12/08 08:16:12;;;;;;;17.13;13.50;;;6.10;98.90;;;;;;5073837;28;20670;-67
2020/12/08 08:18:39;;;;;;;19.55;14.55;;;6.10;99.10;;;;;;5073197;28;20418;-68
2020/12/08 08:21:05;;;;;;;18.65;16.30;;;6.10;99.00;;;;;;5073682;28;20258;-67
2020/12/08 08:23:31;;;;;;;20.08;16.17;;;6.20;99.10;;;;;;5073973;28;20225;-67
2020/12/08 08:25:58;;;;;;;17.37;14.23;;;6.20;99.00;;;;;;5073069;28;20679;-67
2020/12/08 08:28:25;;;;;;;19.73;15.05;;;6.20;99.00;;;;;;5073707;28;20404;-67
2020/12/08 08:30:51;;;;;;;20.67;15.93;;;6.30;99.10;;;;;;5072974;28;20648;-67
2020/12/08 08:33:16;;;;;;;19.55;15.40;;;6.30;99.20;;;;;;5073556;28;20179;-67
2020/12/08 08:35:43;;;;;;;19.90;16.57;;;6.30;99.20;;;;;;5072966;28;20179;-67
2020/12/08 08:38:08;;;;;;;21.13;15.90;;;6.30;99.40;;;;;;5073584;28;20178;-67
2020/12/08 08:40:34;;;;;;;21.90;16.03;;;6.30;99.50;;;;;;5073256;28;20177;-67
2020/12/08 08:43:00;;;;;;;17.40;13.70;;;6.30;99.50;;;;;;5072164;28;20204;-67
2020/12/08 08:45:27;;;;;;;20.98;15.10;;;6.30;99.40;;;;;;5055301;28;20173;-67
2020/12/08 08:47:52;;;;;;;17.33;14.20;;;6.30;99.40;;;;;;5072657;28;20173;-67
2020/12/08 08:50:18;;;;;;;17.30;15.30;;;6.30;99.40;;;;;;5073156;28;20211;-67
2020/12/08 08:52:44;;;;;;;21.63;16.43;;;6.30;99.50;;;;;;5072665;28;20609;-68
2020/12/08 08:55:10;;;;;;;19.80;16.10;;;6.30;99.60;;;;;;5072742;28;20420;-67
2020/12/08 08:57:40;;;;;;;21.15;16.38;;;6.30;99.60;;;;;;5083855;28;20628;-67
2020/12/08 09:00:09;;;;;;;23.02;18.20;;;6.30;99.70;;;;;;5089326;28;20191;-68
2020/12/08 09:02:35;;;;;;;22.58;19.70;;;6.30;99.70;;;;;;5091819;28;20170;-67
2020/12/08 09:05:01;;;;;;;21.35;16.92;;;6.40;99.70;;;;;;5091362;28;20173;-67
2020/12/08 09:07:28;;;;;;;21.13;17.17;;;6.40;99.70;;;;;;5092836;28;20221;-67
2020/12/08 09:09:55;;;;;;;19.65;15.77;;;6.40;99.80;;;;;;5092403;28;20180;-67
2020/12/08 09:12:21;;;;;;;22.17;17.80;;;6.40;99.70;;;;;;5092747;28;20212;-67
2020/12/08 09:14:49;;;;;;;21.50;16.10;;;6.40;99.70;;;;;;5092428;28;20176;-67
2020/12/08 09:17:15;;;;;;;20.10;16.38;;;6.40;99.80;;;;;;5092955;28;20179;-67
2020/12/08 09:19:40;;;;;;;22.50;17.20;;;6.40;99.90;;;;;;5091679;28;20168;-69
2020/12/08 09:22:06;;;;;;;21.50;16.20;;;6.40;99.90;;;;;;5092529;28;20762;-68
2020/12/08 09:24:33;;;;;;;21.40;16.70;;;6.40;99.90;;;;;;5092812;28;20176;-68
2020/12/08 09:26:59;;;;;;;21.60;17.10;;;6.50;99.90;;;;;;5090702;28;20460;-67
2020/12/08 09:29:26;;;;;;;18.75;16.60;;;6.50;99.80;;;;;;5092166;28;20232;-67
2020/12/08 09:31:56;;;;;;;24.50;17.40;;;6.60;99.90;;;;;;5092218;28;20200;-67
2020/12/08 09:34:26;;;;;;;20.80;17.47;;;6.60;99.70;;;;;;5092481;28;20937;-67
2020/12/08 09:36:53;;;;;;;21.58;15.90;;;6.70;99.60;;;;;;5074124;28;20398;-67
2020/12/08 09:39:19;;;;;;;21.73;15.27;;;6.70;99.30;;;;;;5092848;28;20169;-67
2020/12/08 09:41:45;;;;;;;23.10;16.30;;;6.70;99.30;;;;;;5092077;28;20209;-68
2020/12/08 09:44:11;;;;;;;24.00;15.80;;;6.70;99.40;;;;;;5072782;28;20192;-67
2020/12/08 09:46:38;;;;;;;26.92;18.40;;;6.80;99.40;;;;;;5072268;28;20188;-68
2020/12/08 09:49:05;;;;;;;28.13;15.87;;;6.80;99.40;;;;;;5071869;28;20180;-68
2020/12/08 09:51:31;;;;;;;22.98;16.25;;;6.80;99.60;;;;;;5074614;28;20455;-69
2020/12/08 09:53:57;;;;;;;25.33;16.40;;;6.80;99.70;;;;;;5090761;28;20267;-69
2020/12/08 09:56:23;;;;;;;21.65;15.93;;;6.80;99.70;;;;;;5091928;28;20382;-68
2020/12/08 09:58:49;;;;;;;20.13;15.80;;;6.80;99.80;;;;;;5091578;28;20576;-69
2020/12/08 10:01:15;;;;;;;19.33;16.30;;;6.80;99.90;;;;;;5074355;28;20378;-68
2020/12/08 10:03:41;;;;;;;18.97;16.47;;;6.80;99.90;;;;;;5092270;28;20480;-68
2020/12/08 10:06:07;;;;;;;20.83;15.30;;;6.80;99.90;;;;;;5092080;28;20904;-68
2020/12/08 10:08:33;;;;;;;20.37;15.20;;;6.90;99.80;;;;;;5092527;28;20402;-68
2020/12/08 10:10:59;;;;;;;21.70;17.20;;;6.90;99.40;;;;;;5091837;28;20205;-68
2020/12/08 10:13:24;;;;;;;19.80;16.73;;;6.90;99.30;;;;;;5092105;28;20190;-68
2020/12/08 10:15:50;;;;;;;20.07;16.00;;;6.90;99.30;;;;;;5091729;28;20208;-68
2020/12/08 10:18:16;;;;;;;23.10;16.87;;;6.90;99.40;;;;;;5092227;28;20176;-68
2020/12/08 10:20:41;;;;;;;20.50;17.30;;;6.90;99.50;;;;;;5092315;28;20624;-68
2020/12/08 10:23:07;;;;;;;19.10;15.60;;;7.00;99.30;;;;;;5091445;28;20256;-71
2020/12/08 10:25:33;;;;;;;20.63;16.20;;;7.00;99.30;;;;;;5091941;28;20196;-68
2020/12/08 10:28:02;;;;;;;20.90;17.10;;;7.00;99.40;;;;;;5091784;28;20172;-68
2020/12/08 10:30:27;;;;;;;18.93;15.67;;;7.10;99.40;;;;;;5093426;28;20462;-68
2020/12/08 10:32:53;;;;;;;21.30;17.70;;;7.10;99.20;;;;;;5095330;28;20910;-68
2020/12/08 10:35:19;;;;;;;18.67;14.63;;;7.10;99.10;;;;;;5095808;28;20173;-68
2020/12/08 10:37:44;;;;;;;22.00;16.40;;;7.10;98.90;;;;;;5095367;28;20173;-68
2020/12/08 10:40:10;;;;;;;20.27;15.57;;;7.20;98.80;;;;;;5095944;28;20171;-67
2020/12/08 10:42:36;;;;;;;21.73;16.20;;;7.10;98.60;;;;;;5095773;28;20624;-67
2020/12/08 10:45:02;;;;;;;17.27;15.37;;;7.20;98.60;;;;;;5094943;28;20219;-70
2020/12/08 10:47:28;;;;;;;17.60;15.70;;;7.20;98.60;;;;;;5095707;28;20264;-70
2020/12/08 10:49:54;;;;;;;19.13;14.87;;;7.20;98.60;;;;;;5095141;28;20469;-70
2020/12/08 10:52:23;;;;;;;19.83;16.43;;;7.20;98.40;;;;;;5095252;28;20205;-70
2020/12/08 10:54:49;;;;;;;18.10;15.20;;;7.20;98.30;;;;;;5095087;28;20869;-70
2020/12/08 10:57:14;;;;;;;21.83;17.07;;;7.30;98.50;;;;;;5095168;28;20429;-70
2020/12/08 10:59:40;;;;;;;21.93;16.53;;;7.30;98.50;;;;;;5095138;28;20178;-70
2020/12/08 11:02:06;;;;;;;19.40;16.60;;;7.30;98.50;;;;;;5094900;28;20264;-70
2020/12/08 11:04:32;;;;;;;18.23;15.70;;;7.40;98.80;;;;;;5095595;28;20177;-70
2020/12/08 11:06:58;;;;;;;19.83;15.70;;;7.40;99.30;;;;;;5094790;28;20375;-70
2020/12/08 11:09:25;;;;;;;20.30;16.93;;;7.40;98.90;;;;;;5095184;28;20184;-70
2020/12/08 11:11:51;;;;;;;19.77;15.53;;;7.50;98.90;;;;;;5094526;28;20456;-70
2020/12/08 11:14:16;;;;;;;22.27;16.67;;;7.50;98.80;;;;;;5095302;28;20379;-70
2020/12/08 11:16:42;;;;;;;20.33;17.33;;;7.50;98.70;;;;;;5095208;28;20172;-70
2020/12/08 11:19:09;;;;;;;22.50;17.20;;;7.50;98.50;;;;;;5094399;28;20197;-70
2020/12/08 11:21:39;;;;;;;22.33;17.80;;;7.60;98.50;;;;;;5094855;28;20561;-70
2020/12/08 11:24:05;;;;;;;21.43;17.83;;;7.60;98.60;;;;;;5094111;28;20946;-70
2020/12/08 11:26:32;;;;;;;18.73;15.27;;;7.60;98.40;;;;;;5095128;28;20768;-70
2020/12/08 11:28:58;;;;;;;20.30;18.13;;;7.60;98.30;;;;;;5094091;28;20768;-70
2020/12/08 11:31:24;;;;;;;20.50;17.50;;;7.50;98.20;;;;;;5094895;28;20477;-70
2020/12/08 11:33:50;;;;;;;24.53;17.60;;;7.50;98.70;;;;;;5094194;28;20408;-70
2020/12/08 11:36:16;;;;;;;20.67;17.80;;;7.60;98.50;;;;;;5094532;28;20173;-70
2020/12/08 11:38:42;;;;;;;23.70;18.00;;;7.50;98.50;;;;;;5094800;28;20775;-70
2020/12/08 11:41:08;;;;;;;21.97;16.30;;;7.60;98.80;;;;;;5094023;28;20176;-69
2020/12/08 11:43:36;;;;;;;20.40;17.40;;;7.60;99.00;;;;;;5075597;28;20863;-69
2020/12/08 11:46:03;;;;;;;18.63;15.87;;;7.50;98.70;;;;;;5094302;28;20421;-68
2020/12/08 11:48:29;;;;;;;19.07;15.13;;;7.50;98.70;;;;;;5094523;28;20719;-69
2020/12/08 11:50:55;;;;;;;19.90;17.20;;;7.50;98.80;;;;;;5093582;28;20463;-69
2020/12/08 11:53:21;;;;;;;19.27;14.83;;;7.50;98.80;;;;;;5094189;28;20743;-69
2020/12/08 11:55:50;;;;;;;19.00;14.90;;;7.60;99.00;;;;;;5076370;28;20764;-69
2020/12/08 11:58:16;;;;;;;18.90;16.67;;;7.50;99.00;;;;;;5094392;28;20373;-69
2020/12/08 12:00:42;;;;;;;18.27;16.37;;;7.60;98.70;;;;;;5094267;28;20375;-69
2020/12/08 12:03:08;;;;;;;17.17;14.13;;;7.70;98.70;;;;;;5093485;28;20741;-69
2020/12/08 12:05:33;;;;;;;18.03;15.53;;;7.70;98.70;;;;;;5094077;28;20252;-69
2020/12/08 12:07:59;;;;;;;17.83;15.70;;;7.70;98.60;;;;;;5093847;28;20201;-69
2020/12/08 12:10:25;;;;;;;19.27;16.10;;;7.60;98.30;;;;;;5094119;28;20229;-69
2020/12/08 12:12:51;;;;;;;18.00;15.20;;;7.70;98.50;;;;;;5093318;28;20413;-70
2020/12/08 12:15:17;;;;;;;17.70;14.53;;;7.70;98.40;;;;;;5075823;28;20214;-69
2020/12/08 12:17:42;;;;;;;21.37;16.00;;;7.60;98.00;;;;;;5094022;28;20606;-69
2020/12/08 12:20:08;;;;;;;21.10;15.13;;;7.60;98.40;;;;;;5092100;28;20260;-69
2020/12/08 12:22:35;;;;;;;17.17;15.20;;;7.60;98.60;;;;;;5091527;28;20241;-69
2020/12/08 12:25:01;;;;;;;18.93;16.33;;;7.60;98.70;;;;;;5091213;28;20937;-69
2020/12/08 12:27:27;;;;;;;19.20;16.40;;;7.70;98.60;;;;;;5092266;28;20416;-69
2020/12/08 12:29:52;;;;;;;19.07;16.13;;;7.80;98.70;;;;;;5091451;28;20471;-69
2020/12/08 12:32:18;;;;;;;17.47;15.67;;;7.80;98.70;;;;;;5093302;28;20211;-69
2020/12/08 12:34:44;;;;;;;19.57;17.00;;;7.90;98.50;;;;;;5093637;28;20183;-69
2020/12/08 12:37:10;;;;;;;21.90;16.53;;;7.90;98.50;;;;;;5092577;28;20415;-69